Wednesday, June 20, 2018, 5:15 PM EDT
Back to Local

KSFZ, Pawtucket, North Central State Airport

Location: Smithfield, RI, United States Lat: 41.917
Local Time: 5:15 PM EDT (21:15 GMT) Lon: -71.5
Time Zone: US/Eastern Elev: 439 ft

Show me the last for .
Show Coded

Time T Td Feel RH Dir Speed Gust Alt SLP Vis Weather Sky Remarks
2018-06-20 15:56 80 55 80 42 270° 13 18 29.82 29.65 10 CLR None
2018-06-20 14:56 78 54 79 43 290° 10 - 29.83 29.67 10 CLR None
2018-06-20 13:56 77 52 78 41 250° 6 - 29.84 29.68 10 CLR 6-hr Min Temp (2pm): 66.0°F
6-hr Max Temp (2pm): 79.0°F
2018-06-20 12:56 78 54 79 43 270° 10 - - - 10 CLR None
2018-06-20 11:56 76 55 78 48 Variable 5 - 29.88 29.71 10 CLR None
2018-06-20 10:56 75 54 77 47 Variable 6 - 29.89 29.73 10 CLR None
2018-06-20 09:56 72 52 76 49 Variable 5 - 29.91 29.74 10 CLR None
2018-06-20 07:56 65 53 - 65 - Calm - 29.94 29.77 10 CLR 6-hr Min Temp (8am): 54.0°F
6-hr Max Temp (8am): 66.0°F
2018-06-20 06:56 63 52 - 67 20° 5 - 29.93 29.76 10 CLR None
2018-06-20 05:56 55 50 - 83 - Calm - 29.91 29.75 10 CLR None
2018-06-20 04:56 54 48 - 80 40° 3 - 29.90 29.73 10 CLR None
2018-06-20 03:56 56 49 - 77 - Calm - 29.89 29.72 10 CLR None
2018-06-20 02:56 57 48 - 71 10° 3 - 29.89 29.72 10 CLR None
2018-06-20 01:56 60 48 - 64 - Calm - 29.90 29.73 10 CLR 6-hr Min Temp (2am): 60.1°F
6-hr Max Temp (2am): 73.9°F
2018-06-20 00:56 62 48 - 60 10° 6 - 29.89 29.73 10 CLR 24-hr Min Temp (1am): 62.1°F
24-hr Max Temp (1am): 82.0°F
2018-06-19 23:56 65 47 - 52 10° 7 - 29.90 29.73 10 CLR None
2018-06-19 22:56 64 47 - 53 10° 6 - 29.89 29.72 10 CLR None
2018-06-19 21:56 65 48 - 54 330° 7 - 29.88 29.71 10 CLR None
2018-06-19 20:56 68 50 - 52 330° 6 - 29.85 29.69 10 CLR None
2018-06-19 19:56 74 49 76 41 340° 6 - 29.83 29.66 10 CLR 6-hr Min Temp (8pm): 73.9°F
6-hr Max Temp (8pm): 82.0°F
2018-06-19 18:56 78 52 78 40 360° 9 - 29.81 29.65 10 CLR None
2018-06-19 17:56 79 53 79 40 330° 9 - 29.80 29.63 10 CLR None

Support USWX by starting your Amazon purchase here.